Merrimac, MA

9:38 AM EST on January 25, 2015 (GMT -0500)
Merrimac, Mast | Change Station
CLOSE
Current Station
Personal Weather Station
Location: Merrimac, MA
Elevation: 95 ft
Nearby Weather Stations
Active Advisory: Blizzard Watch

Elev 95 ft 42.83 °N, 71.00 °W | Updated 2 seconds ago

Overcast
Overcast
34.7 °F
Feels Like 35 °F
N
0.0
Wind Variable Wind from WNW
Gusts 0.0 mph

Today
High -- | Low -- °F
--% Chance of Precip.
Yesterday
High -- | Low -- °F
Precip. -- in
7:05 AM 4:47 PM
Waxing Crescent, 33% visible
Pressure 29.52 in
Visibility 10.0 miles
Clouds Mostly Cloudy 6000 ft
Windchill 35 °F
Dew Point 31 °F
Humidity 85%
Rainfall 0.05 in
Snow Depth Not available.
UV 1 out of 12
Pollen .10 out of 12
Air Quality Not available.
Flu Activity Not available.
METAR KLWM 251354Z 23011KT 10SM BKN060 00/M03 A2952

More Conditions Fewer Conditions

Pressure 29.52 in
Visibility 10.0 miles
Clouds Mostly Cloudy 6000 ft
Windchill 35 °F
Dew Point 31 °F
Humidity 85%
Rainfall 0.05 in
Snow Depth Not available.
UV 1 out of 12
Pollen .10 out of 12
Air Quality Not available.
Flu Activity Not available.
METAR KLWM 251354Z 23011KT 10SM BKN060 00/M03 A2952

More Conditions Fewer Conditions

10-Day Weather Forecast

Almanac

Astronomy

Jan. 25, 2015 Rise Set
Actual Time
Civil Twilight
Nautical Twilight
Astronomical Twilight
Moon
Length of Visible Light
Length of Day
Tomorrow will be .
, % of the Moon is Illuminated

Today's Extremes

State Highs State Lows

Community

WunderPhotos

Upload Photos

1,789,898 photos uploaded!

WunderBlogs® & News

Nearby

Air Quality

  Air Quality AQ Index Pollutant
Not available.

Snow Depth

Station Depth Elevation

Earthquake Activity

City Distance Mag. Time & Date
Minimum magnitude displayed is 2.5.

Coastal Water Temperatures

Place Temperature

Nearby Weather Stations